YM Uniform — A8OR8 — position and weather

sailwx.info

Track history (hours):
 
Tides and Currents Weather Stations Pressure Air Temp Water Temp Dewpoint Dewpoint Depression Visibility Wind Speed Wind Dir Waves Ship Positions

YM Uniform

Last reported at 2017-Nov-15 11:58 UTC. Time now 2017-Nov-24 07:05 UTC.
Position N 24°20' E 118°22'.
Warning: this ship's position is 8 days out of date.

Length 333 m; draft 7.5 m.

Type: Cargo ship. MMSI: 636013693.

Date/timePositionNaut miles runAvg speedWind from/ knotsBaromVisibWave heightAir tempDewpointWater temp
2017-Nov-15 11:58N 24°20' E 118°22'3 6.8
2017-Nov-15 11:30N 24°20' E 118°19'4 7.3
2017-Nov-15 11:01N 24°20' E 118°15'4 8.4
2017-Nov-15 10:31N 24°20' E 118°10'510.7
2017-Nov-15 10:01N 24°24' E 118°06'612.4
2017-Nov-15 09:29N 24°27' E 117°59'1 1.8
2017-Nov-15 08:44N 24°27' E 117°58'0 0.0
2017-Nov-15 08:29N 24°27' E 117°58'0 0.0
2017-Nov-15 07:53N 24°27' E 117°58'0 0.0
2017-Nov-15 07:29N 24°27' E 117°58'0 0.0
2017-Nov-15 06:59N 24°27' E 117°58'0 0.0
2017-Nov-15 06:23N 24°27' E 117°58'0 0.0
2017-Nov-15 05:59N 24°27' E 117°58'0 0.0
2017-Nov-15 05:26N 24°27' E 117°58'0 0.0
2017-Nov-15 04:53N 24°27' E 117°58'0 0.0
2017-Nov-15 04:29N 24°27' E 117°58'0 0.0
2017-Nov-15 03:59N 24°27' E 117°58'0 0.0
2017-Nov-15 03:23N 24°27' E 117°58'0 0.0
2017-Nov-15 02:59N 24°27' E 117°58'0 0.0
2017-Nov-15 02:23N 24°27' E 117°58'0 0.0
2017-Nov-15 01:59N 24°27' E 117°58'0 0.0
2017-Nov-15 01:26N 24°27' E 117°58'0 0.0
2017-Nov-15 00:59N 24°27' E 117°58'0 0.0
2017-Nov-15 00:29N 24°27' E 117°58'0 0.0
2017-Nov-14 23:59N 24°27' E 117°58'0 0.0
2017-Nov-14 23:26N 24°27' E 117°58'0 0.0
2017-Nov-14 22:50N 24°27' E 117°58'0 0.0
2017-Nov-14 22:29N 24°27' E 117°58'0 0.0
2017-Nov-14 21:59N 24°27' E 117°58'0 0.0
2017-Nov-14 21:29N 24°27' E 117°58'0 0.0
2017-Nov-14 20:59N 24°27' E 117°58'0 0.0
2017-Nov-14 20:29N 24°27' E 117°58'0 0.0
2017-Nov-14 19:59N 24°27' E 117°58'0 0.0
2017-Nov-14 19:29N 24°27' E 117°58'0 0.0
2017-Nov-14 18:59N 24°27' E 117°58'0 0.0
2017-Nov-14 18:29N 24°27' E 117°58'0 0.0
2017-Nov-14 17:56N 24°27' E 117°58'0 0.0
2017-Nov-14 17:29N 24°27' E 117°58'0 0.0
2017-Nov-14 16:56N 24°27' E 117°58'0 0.0
2017-Nov-14 16:26N 24°27' E 117°58'0 0.0
2017-Nov-14 15:59N 24°27' E 117°58'0 0.0
2017-Nov-14 15:26N 24°27' E 117°58'0 0.0
2017-Nov-14 14:56N 24°27' E 117°58'0 0.0
2017-Nov-14 14:23N 24°27' E 117°58'0 0.0
2017-Nov-14 13:50N 24°27' E 117°58'0 0.0
2017-Nov-14 13:26N 24°27' E 117°58'0 0.0
2017-Nov-14 12:56N 24°27' E 117°58'0 0.0
2017-Nov-14 12:26N 24°27' E 117°58'0 0.0
2017-Nov-14 11:59N 24°27' E 117°58'0 0.0
2017-Nov-14 11:29N 24°27' E 117°58'0 0.0
2017-Nov-14 10:59N 24°27' E 117°58'0 0.0
2017-Nov-14 10:29N 24°27' E 117°58'0 0.0
2017-Nov-14 09:59N 24°27' E 117°58'0 0.0
2017-Nov-14 09:29N 24°27' E 117°58'0 0.0
2017-Nov-14 08:59N 24°27' E 117°58'0 0.0
2017-Nov-14 08:29N 24°27' E 117°58'0 0.0
2017-Nov-14 07:59N 24°27' E 117°58'0 0.0
2017-Nov-14 07:29N 24°27' E 117°58'0 0.0
2017-Nov-14 06:58N 24°27' E 117°58'0 0.0
2017-Nov-14 06:28N 24°27' E 117°58'0 0.0
2017-Nov-14 05:55N 24°27' E 117°58'0 0.0
2017-Nov-14 05:28N 24°27' E 117°58'0 0.0
2017-Nov-14 04:58N 24°27' E 117°58'0 0.0
2017-Nov-14 04:28N 24°27' E 117°58'0 0.0
2017-Nov-14 03:58N 24°27' E 117°58'0 0.0
2017-Nov-14 03:28N 24°27' E 117°58'0 0.0
2017-Nov-14 02:58N 24°27' E 117°58'0 0.0
2017-Nov-14 02:28N 24°27' E 117°58'0 0.0
2017-Nov-14 01:58N 24°27' E 117°58'0 0.0
2017-Nov-14 01:28N 24°27' E 117°58'0 0.0
2017-Nov-14 00:58N 24°27' E 117°58'0 0.0
2017-Nov-14 00:28N 24°27' E 117°58'0 0.0
2017-Nov-13 23:58N 24°27' E 117°58'0 0.0
2017-Nov-13 23:28N 24°27' E 117°58'0 0.0
2017-Nov-13 22:58N 24°27' E 117°58'0 0.0
2017-Nov-13 22:28N 24°27' E 117°58'0 0.0
2017-Nov-13 21:58N 24°27' E 117°58'  
Track history (hours):
 
Tides and Currents Weather Stations Pressure Air Temp Water Temp Dewpoint Dewpoint Depression Visibility Wind Speed Wind Dir Waves Ship Positions

YM Uniform

Last reported at 2017-Nov-15 11:58 UTC. Time now 2017-Nov-24 07:05 UTC.
Position N 24°20' E 118°22'.
Warning: this ship's position is 8 days out of date.

Length 333 m; draft 7.5 m.

Type: Cargo ship. MMSI: 636013693.

Date/timePositionNaut miles runAvg speedWind from/ knotsBaromVisibWave heightAir tempDewpointWater temp
2017-Nov-15 11:58N 24°20' E 118°22'3 6.8
2017-Nov-15 11:30N 24°20' E 118°19'4 7.3
2017-Nov-15 11:01N 24°20' E 118°15'4 8.4
2017-Nov-15 10:31N 24°20' E 118°10'510.7
2017-Nov-15 10:01N 24°24' E 118°06'612.4
2017-Nov-15 09:29N 24°27' E 117°59'1 1.8
2017-Nov-15 08:44N 24°27' E 117°58'0 0.0
2017-Nov-15 08:29N 24°27' E 117°58'0 0.0
2017-Nov-15 07:53N 24°27' E 117°58'0 0.0
2017-Nov-15 07:29N 24°27' E 117°58'0 0.0
2017-Nov-15 06:59N 24°27' E 117°58'0 0.0
2017-Nov-15 06:23N 24°27' E 117°58'0 0.0
2017-Nov-15 05:59N 24°27' E 117°58'0 0.0
2017-Nov-15 05:26N 24°27' E 117°58'0 0.0
2017-Nov-15 04:53N 24°27' E 117°58'0 0.0
2017-Nov-15 04:29N 24°27' E 117°58'0 0.0
2017-Nov-15 03:59N 24°27' E 117°58'0 0.0
2017-Nov-15 03:23N 24°27' E 117°58'0 0.0
2017-Nov-15 02:59N 24°27' E 117°58'0 0.0
2017-Nov-15 02:23N 24°27' E 117°58'0 0.0
2017-Nov-15 01:59N 24°27' E 117°58'0 0.0
2017-Nov-15 01:26N 24°27' E 117°58'0 0.0
2017-Nov-15 00:59N 24°27' E 117°58'0 0.0
2017-Nov-15 00:29N 24°27' E 117°58'0 0.0
2017-Nov-14 23:59N 24°27' E 117°58'0 0.0
2017-Nov-14 23:26N 24°27' E 117°58'0 0.0
2017-Nov-14 22:50N 24°27' E 117°58'0 0.0
2017-Nov-14 22:29N 24°27' E 117°58'0 0.0
2017-Nov-14 21:59N 24°27' E 117°58'0 0.0
2017-Nov-14 21:29N 24°27' E 117°58'0 0.0
2017-Nov-14 20:59N 24°27' E 117°58'0 0.0
2017-Nov-14 20:29N 24°27' E 117°58'0 0.0
2017-Nov-14 19:59N 24°27' E 117°58'0 0.0
2017-Nov-14 19:29N 24°27' E 117°58'0 0.0
2017-Nov-14 18:59N 24°27' E 117°58'0 0.0
2017-Nov-14 18:29N 24°27' E 117°58'0 0.0
2017-Nov-14 17:56N 24°27' E 117°58'0 0.0
2017-Nov-14 17:29N 24°27' E 117°58'0 0.0
2017-Nov-14 16:56N 24°27' E 117°58'0 0.0
2017-Nov-14 16:26N 24°27' E 117°58'0 0.0
2017-Nov-14 15:59N 24°27' E 117°58'0 0.0
2017-Nov-14 15:26N 24°27' E 117°58'0 0.0
2017-Nov-14 14:56N 24°27' E 117°58'0 0.0
2017-Nov-14 14:23N 24°27' E 117°58'0 0.0
2017-Nov-14 13:50N 24°27' E 117°58'0 0.0
2017-Nov-14 13:26N 24°27' E 117°58'0 0.0
2017-Nov-14 12:56N 24°27' E 117°58'0 0.0
2017-Nov-14 12:26N 24°27' E 117°58'0 0.0
2017-Nov-14 11:59N 24°27' E 117°58'0 0.0
2017-Nov-14 11:29N 24°27' E 117°58'0 0.0
2017-Nov-14 10:59N 24°27' E 117°58'0 0.0
2017-Nov-14 10:29N 24°27' E 117°58'0 0.0
2017-Nov-14 09:59N 24°27' E 117°58'0 0.0
2017-Nov-14 09:29N 24°27' E 117°58'0 0.0
2017-Nov-14 08:59N 24°27' E 117°58'0 0.0
2017-Nov-14 08:29N 24°27' E 117°58'0 0.0
2017-Nov-14 07:59N 24°27' E 117°58'0 0.0
2017-Nov-14 07:29N 24°27' E 117°58'0 0.0
2017-Nov-14 06:58N 24°27' E 117°58'0 0.0
2017-Nov-14 06:28N 24°27' E 117°58'0 0.0
2017-Nov-14 05:55N 24°27' E 117°58'0 0.0
2017-Nov-14 05:28N 24°27' E 117°58'0 0.0
2017-Nov-14 04:58N 24°27' E 117°58'0 0.0
2017-Nov-14 04:28N 24°27' E 117°58'0 0.0
2017-Nov-14 03:58N 24°27' E 117°58'0 0.0
2017-Nov-14 03:28N 24°27' E 117°58'0 0.0
2017-Nov-14 02:58N 24°27' E 117°58'0 0.0
2017-Nov-14 02:28N 24°27' E 117°58'0 0.0
2017-Nov-14 01:58N 24°27' E 117°58'0 0.0
2017-Nov-14 01:28N 24°27' E 117°58'0 0.0
2017-Nov-14 00:58N 24°27' E 117°58'0 0.0
2017-Nov-14 00:28N 24°27' E 117°58'0 0.0
2017-Nov-13 23:58N 24°27' E 117°58'0 0.0
2017-Nov-13 23:28N 24°27' E 117°58'0 0.0
2017-Nov-13 22:58N 24°27' E 117°58'0 0.0
2017-Nov-13 22:28N 24°27' E 117°58'0 0.0
2017-Nov-13 21:58N 24°27' E 117°58'  

Dump ship's entire track history